Time;durP1;ratioP1;P1;durP2;ratioP2;P2;SDS_P1;SDS_P2;PMS_P1;PMS_P2;Temp;Humidity;BMP_temperature;BMP_pressure;BME280_temperature;BME280_humidity;BME280_pressure;Samples;Min_cycle;Max_cycle;Signal;HPM_P1;HPM_P2
2022/11/23 00:00:35;;;;;;;4.13;1.45;;;5.80;99.90;;;;;;5055868;28;20475;-62
2022/11/23 00:03:01;;;;;;;8.10;2.03;;;5.60;99.90;;;;;;5066732;28;20047;-62
2022/11/23 00:05:28;;;;;;;4.20;1.23;;;5.30;99.90;;;;;;5056013;28;20028;-62
2022/11/23 00:07:53;;;;;;;5.82;1.58;;;5.00;99.90;;;;;;5051359;28;20017;-62
2022/11/23 00:10:19;;;;;;;7.65;1.65;;;4.80;99.90;;;;;;5043107;28;20385;-62
2022/11/23 00:12:45;;;;;;;5.70;1.40;;;4.70;99.90;;;;;;5051459;28;20036;-62
2022/11/23 00:15:13;;;;;;;3.63;1.52;;;4.50;99.90;;;;;;5048075;28;20036;-62
2022/11/23 00:17:39;;;;;;;3.05;1.60;;;4.50;99.90;;;;;;5045128;28;20053;-63
2022/11/23 00:20:06;;;;;;;5.68;1.90;;;4.50;99.90;;;;;;5054047;28;20146;-63
2022/11/23 00:22:32;;;;;;;9.82;1.98;;;4.50;99.90;;;;;;5051094;28;20381;-63
2022/11/23 00:24:58;;;;;;;3.25;1.42;;;4.40;99.90;;;;;;5058323;28;20033;-63
2022/11/23 00:27:24;;;;;;;5.18;1.70;;;4.40;99.90;;;;;;5061883;28;20105;-64
2022/11/23 00:29:50;;;;;;;5.15;1.70;;;4.30;99.90;;;;;;5051777;28;20021;-61
2022/11/23 00:32:15;;;;;;;6.05;1.60;;;4.30;99.90;;;;;;5050572;28;20499;-62
2022/11/23 00:34:41;;;;;;;3.17;1.45;;;4.30;99.90;;;;;;5051806;28;20123;-61
2022/11/23 00:37:07;;;;;;;5.72;1.70;;;4.30;99.90;;;;;;5047360;28;20392;-62
2022/11/23 00:39:33;;;;;;;5.68;2.50;;;4.40;99.90;;;;;;5046451;28;20469;-62
2022/11/23 00:41:58;;;;;;;5.55;2.25;;;4.50;99.90;;;;;;5054456;28;20464;-62
2022/11/23 00:44:24;;;;;;;5.13;1.75;;;4.60;99.90;;;;;;5037546;28;20099;-62
2022/11/23 00:46:50;;;;;;;6.68;1.85;;;4.80;99.90;;;;;;5051640;28;20025;-62
2022/11/23 00:49:15;;;;;;;5.93;2.42;;;5.00;99.90;;;;;;5051212;28;20511;-62
2022/11/23 00:51:41;;;;;;;3.03;1.80;;;5.00;99.90;;;;;;5050593;28;20036;-62
2022/11/23 00:54:07;;;;;;;3.83;2.00;;;5.00;99.90;;;;;;5051043;28;20031;-62
2022/11/23 00:56:34;;;;;;;8.80;2.03;;;4.90;99.90;;;;;;5056994;28;20047;-62
2022/11/23 00:59:00;;;;;;;6.40;2.13;;;4.90;99.90;;;;;;5045389;28;20033;-62
2022/11/23 01:01:29;;;;;;;3.00;1.50;;;4.80;99.90;;;;;;5059352;28;20037;-62
2022/11/23 01:03:57;;;;;;;4.53;1.67;;;4.90;99.90;;;;;;5051138;28;20068;-62
2022/11/23 01:06:26;;;;;;;6.60;1.50;;;5.10;99.90;;;;;;5046942;28;20388;-62
2022/11/23 01:08:58;;;;;;;6.38;1.55;;;5.40;99.90;;;;;;5061367;28;20047;-62
2022/11/23 01:11:26;;;;;;;2.17;1.05;;;5.60;99.90;;;;;;5059256;28;20107;-62
2022/11/23 01:13:52;;;;;;;3.63;1.60;;;6.00;99.90;;;;;;5059011;28;20065;-63
2022/11/23 01:16:29;;;;;;;4.78;1.80;;;6.10;99.90;;;;;;5051000;28;20140;-62
2022/11/23 01:18:57;;;;;;;5.07;1.60;;;6.30;99.90;;;;;;5054142;28;20514;-62
2022/11/23 01:21:24;;;;;;;4.53;1.70;;;6.20;99.90;;;;;;5052101;28;20067;-62
2022/11/23 01:23:51;;;;;;;4.93;1.98;;;6.20;99.90;;;;;;5047860;28;20033;-62
2022/11/23 01:26:17;;;;;;;6.50;1.80;;;6.30;99.90;;;;;;5053999;28;20029;-63
2022/11/23 01:28:43;;;;;;;8.32;1.92;;;6.30;99.90;;;;;;5060383;28;20029;-63
2022/11/23 01:31:18;;;;;;;5.50;2.10;;;6.30;99.90;;;;;;5060415;28;20029;-62
2022/11/23 01:33:45;;;;;;;6.63;1.88;;;6.30;99.90;;;;;;5041278;28;20027;-62
2022/11/23 01:36:20;;;;;;;4.57;2.38;;;6.20;99.90;;;;;;5058130;28;20173;-62
2022/11/23 01:38:48;;;;;;;8.60;2.67;;;6.20;99.90;;;;;;5064954;28;20030;-60
2022/11/23 01:41:19;;;;;;;5.82;1.50;;;6.10;99.90;;;;;;5058918;28;20508;-62
2022/11/23 01:43:45;;;;;;;2.80;1.10;;;6.20;99.90;;;;;;5051521;28;20503;-62
2022/11/23 01:46:11;;;;;;;2.67;1.13;;;6.10;99.90;;;;;;5048964;28;20037;-62
2022/11/23 01:48:54;;;;;;;4.22;1.20;;;5.90;99.90;;;;;;5054841;28;20029;-62
2022/11/23 01:51:27;;;;;;;2.58;1.25;;;5.80;99.90;;;;;;5049984;28;20068;-62
2022/11/23 01:53:56;;;;;;;4.50;1.27;;;5.80;99.90;;;;;;5046146;28;20384;-62
2022/11/23 01:56:29;;;;;;;4.82;2.15;;;5.70;99.90;;;;;;5053191;28;20034;-62
2022/11/23 01:58:59;;;;;;;3.83;2.53;;;5.60;99.90;;;;;;5051413;28;20029;-62
2022/11/23 02:01:25;;;;;;;6.20;2.42;;;5.50;99.90;;;;;;5060610;28;20033;-62
2022/11/23 02:03:53;;;;;;;4.07;2.28;;;5.30;99.90;;;;;;5055508;28;20029;-62
2022/11/23 02:06:21;;;;;;;7.60;2.25;;;5.20;99.90;;;;;;5054283;28;20025;-61
2022/11/23 02:08:48;;;;;;;3.70;2.28;;;5.20;99.90;;;;;;5058932;28;20127;-62
2022/11/23 02:11:15;;;;;;;6.20;2.42;;;5.20;99.90;;;;;;5052742;28;20031;-62
2022/11/23 02:13:43;;;;;;;4.78;1.42;;;5.30;99.90;;;;;;5063253;28;20020;-62
2022/11/23 02:16:10;;;;;;;5.60;1.88;;;5.40;99.90;;;;;;5054472;28;20461;-62
2022/11/23 02:18:39;;;;;;;3.70;1.98;;;5.40;99.90;;;;;;5058329;28;20029;-62
2022/11/23 02:21:05;;;;;;;9.23;2.47;;;5.50;99.90;;;;;;5040835;28;20033;-62
2022/11/23 02:23:59;;;;;;;6.80;2.50;;;5.50;99.90;;;;;;5056171;28;20037;-62
2022/11/23 02:26:28;;;;;;;14.10;2.75;;;5.40;99.90;;;;;;5053891;28;20031;-62
2022/11/23 02:29:16;;;;;;;4.97;2.47;;;5.30;99.90;;;;;;5055519;28;20025;-62
2022/11/23 02:31:41;;;;;;;6.45;2.58;;;5.20;99.90;;;;;;5046012;28;20021;-62
2022/11/23 02:34:07;;;;;;;6.10;2.47;;;5.10;99.90;;;;;;5050779;28;20043;-62
2022/11/23 02:36:45;;;;;;;4.55;2.45;;;5.00;99.90;;;;;;5056976;28;20059;-62
2022/11/23 02:39:19;;;;;;;7.45;2.85;;;5.00;99.90;;;;;;5050953;28;20086;-62
2022/11/23 02:41:48;;;;;;;4.35;2.50;;;5.00;99.90;;;;;;5054175;28;20119;-62
2022/11/23 02:44:22;;;;;;;9.07;2.92;;;5.10;99.90;;;;;;5052672;28;20045;-62
2022/11/23 02:46:49;;;;;;;4.88;2.60;;;5.20;99.90;;;;;;5047409;28;20109;-61
2022/11/23 02:49:14;;;;;;;8.50;2.47;;;5.20;99.90;;;;;;5050085;28;20064;-62
2022/11/23 02:51:40;;;;;;;6.63;2.70;;;5.20;99.90;;;;;;5055406;28;20055;-62
2022/11/23 02:54:06;;;;;;;3.97;2.22;;;5.30;99.90;;;;;;5053282;28;20029;-62
2022/11/23 02:56:32;;;;;;;5.47;2.38;;;5.30;99.90;;;;;;5058339;28;20461;-62
2022/11/23 02:58:57;;;;;;;6.65;2.53;;;5.30;99.90;;;;;;5062542;28;20036;-62
2022/11/23 03:01:23;;;;;;;5.57;2.70;;;5.20;99.90;;;;;;5056536;28;20029;-63
2022/11/23 03:03:49;;;;;;;9.32;2.17;;;5.20;99.90;;;;;;5051601;28;20400;-61
2022/11/23 03:06:14;;;;;;;6.15;2.20;;;5.10;99.90;;;;;;5052482;28;20469;-61
2022/11/23 03:08:40;;;;;;;6.20;3.20;;;5.00;99.90;;;;;;5051184;28;20067;-61
2022/11/23 03:11:06;;;;;;;5.63;2.58;;;4.90;99.90;;;;;;5063084;28;20029;-62
2022/11/23 03:13:31;;;;;;;7.97;2.65;;;5.00;99.90;;;;;;5063319;28;20056;-62
2022/11/23 03:15:57;;;;;;;5.82;2.60;;;5.10;99.90;;;;;;5053576;28;20049;-62
2022/11/23 03:18:24;;;;;;;3.78;2.00;;;5.20;99.90;;;;;;5053014;28;20032;-62
2022/11/23 03:20:49;;;;;;;3.97;2.53;;;5.40;99.90;;;;;;5054115;28;20044;-62
2022/11/23 03:23:15;;;;;;;7.45;2.15;;;5.50;99.90;;;;;;5060721;28;20080;-62
2022/11/23 03:25:41;;;;;;;8.38;2.78;;;5.60;99.90;;;;;;5051722;28;20546;-62
2022/11/23 03:28:07;;;;;;;6.82;2.55;;;5.60;99.90;;;;;;5039579;28;20020;-62
2022/11/23 03:30:32;;;;;;;5.97;1.48;;;5.60;99.90;;;;;;5063516;28;20073;-62
2022/11/23 03:32:58;;;;;;;7.45;2.63;;;5.70;99.90;;;;;;5054664;28;20037;-62
2022/11/23 03:35:24;;;;;;;7.07;2.65;;;5.80;99.90;;;;;;5047942;28;20048;-62
2022/11/23 03:37:50;;;;;;;6.80;2.20;;;5.70;99.90;;;;;;5056095;28;20032;-62
2022/11/23 03:40:15;;;;;;;5.95;2.55;;;5.70;99.90;;;;;;5052441;28;20033;-61
2022/11/23 03:42:41;;;;;;;19.73;3.13;;;5.60;99.90;;;;;;5062367;28;20500;-62
2022/11/23 03:45:08;;;;;;;6.32;1.38;;;5.50;99.90;;;;;;5058805;28;20025;-62
2022/11/23 03:47:35;;;;;;;8.10;1.40;;;5.60;99.90;;;;;;5049702;28;20381;-62
2022/11/23 03:50:00;;;;;;;10.00;1.50;;;5.90;99.90;;;;;;5052694;28;20473;-62
2022/11/23 03:52:26;;;;;;;11.43;1.42;;;6.10;99.90;;;;;;5052577;28;20029;-62
2022/11/23 03:54:52;;;;;;;4.60;0.82;;;6.40;99.90;;;;;;5060135;28;20032;-60
2022/11/23 03:57:22;;;;;;;6.82;1.55;;;6.70;99.90;;;;;;5053635;28;20067;-62
2022/11/23 03:59:48;;;;;;;13.48;1.98;;;7.00;99.90;;;;;;5049846;28;20112;-62
2022/11/23 04:02:13;;;;;;;10.95;0.90;;;7.20;99.90;;;;;;5065515;28;20380;-61
2022/11/23 04:04:39;;;;;;;9.80;2.58;;;7.40;99.90;;;;;;5060512;28;20025;-62
2022/11/23 04:07:05;;;;;;;14.20;3.05;;;7.50;99.90;;;;;;5062127;28;20547;-61
2022/11/23 04:09:31;;;;;;;5.65;0.98;;;7.70;99.90;;;;;;5067361;28;20384;-62
2022/11/23 04:11:57;;;;;;;8.63;0.90;;;7.80;99.90;;;;;;5055372;28;20033;-62
2022/11/23 04:14:23;;;;;;;11.48;1.83;;;7.90;99.90;;;;;;5056012;28;20037;-62
2022/11/23 04:16:48;;;;;;;11.45;1.75;;;8.10;99.90;;;;;;5065048;28;20048;-62
2022/11/23 04:19:14;;;;;;;5.65;0.80;;;8.10;99.90;;;;;;5048702;28;20033;-62
2022/11/23 04:21:40;;;;;;;8.13;1.63;;;8.20;99.90;;;;;;5055993;28;20024;-62
2022/11/23 04:24:06;;;;;;;8.80;1.58;;;8.40;99.90;;;;;;5066361;28;20478;-62
2022/11/23 04:26:31;;;;;;;12.98;1.60;;;8.50;99.90;;;;;;5057858;28;20021;-62
2022/11/23 04:28:57;;;;;;;12.15;1.08;;;8.60;99.90;;;;;;5061890;28;20020;-62
2022/11/23 04:31:23;;;;;;;10.35;1.40;;;8.60;99.90;;;;;;5049514;28;20045;-62
2022/11/23 04:33:48;;;;;;;5.72;0.80;;;8.80;99.90;;;;;;5051289;28;20040;-62
2022/11/23 04:36:15;;;;;;;9.35;1.75;;;8.80;99.90;;;;;;5064391;28;20021;-62
2022/11/23 04:38:40;;;;;;;5.25;0.80;;;8.80;99.90;;;;;;5057139;28;20025;-62
2022/11/23 04:41:06;;;;;;;4.45;1.15;;;8.90;99.90;;;;;;5056456;28;20115;-62
2022/11/23 04:43:32;;;;;;;8.00;1.05;;;9.00;99.90;;;;;;5071540;28;20036;-62
2022/11/23 04:45:58;;;;;;;13.80;1.38;;;9.00;99.90;;;;;;5067464;28;20100;-62
2022/11/23 04:48:23;;;;;;;11.73;1.20;;;9.00;99.90;;;;;;5059744;28;20462;-62
2022/11/23 04:50:49;;;;;;;9.60;0.90;;;9.20;99.90;;;;;;5056683;28;20112;-62
2022/11/23 04:53:15;;;;;;;5.60;1.00;;;9.30;99.90;;;;;;5058151;28;20021;-62
2022/11/23 04:55:41;;;;;;;4.63;0.90;;;9.40;99.90;;;;;;5037891;28;20048;-62
2022/11/23 04:58:07;;;;;;;7.97;1.10;;;9.40;99.90;;;;;;5046824;28;20487;-61
2022/11/23 05:00:32;;;;;;;10.23;1.00;;;9.40;99.90;;;;;;5041692;28;20083;-62
2022/11/23 05:02:59;;;;;;;5.38;1.30;;;9.30;99.90;;;;;;5064514;28;20155;-62
2022/11/23 05:05:25;;;;;;;7.78;1.65;;;9.40;99.90;;;;;;5039719;28;20040;-62
2022/11/23 05:07:51;;;;;;;11.68;1.17;;;9.50;99.90;;;;;;5060267;28;20475;-61
2022/11/23 05:10:17;;;;;;;7.15;0.90;;;9.70;99.90;;;;;;5063315;28;20024;-61
2022/11/23 05:12:43;;;;;;;4.20;0.68;;;9.70;99.90;;;;;;5066775;28;20131;-61
2022/11/23 05:15:12;;;;;;;5.70;0.90;;;9.80;99.90;;;;;;5062664;28;20026;-62
2022/11/23 05:17:38;;;;;;;9.80;1.23;;;9.80;99.90;;;;;;5062533;28;20041;-61
2022/11/23 05:20:04;;;;;;;5.32;0.60;;;9.90;99.90;;;;;;5066834;28;20361;-62
2022/11/23 05:22:30;;;;;;;7.07;0.90;;;10.00;99.90;;;;;;5060268;28;20469;-61
2022/11/23 05:24:56;;;;;;;6.32;0.77;;;10.00;99.90;;;;;;5066930;28;20074;-62
2022/11/23 05:27:21;;;;;;;7.00;1.05;;;10.10;99.90;;;;;;5057032;28;20029;-62
2022/11/23 05:29:47;;;;;;;6.47;1.05;;;10.20;99.90;;;;;;5066892;28;20031;-61
2022/11/23 05:32:13;;;;;;;5.85;0.88;;;10.20;99.90;;;;;;5066978;28;20381;-62
2022/11/23 05:34:39;;;;;;;8.75;1.15;;;10.20;99.90;;;;;;5058559;28;20021;-62
2022/11/23 05:37:04;;;;;;;4.72;0.90;;;10.30;99.90;;;;;;5040273;28;20030;-62
2022/11/23 05:39:30;;;;;;;10.38;2.72;;;10.30;99.90;;;;;;5057466;28;20029;-63
2022/11/23 05:41:56;;;;;;;6.15;1.00;;;10.30;99.90;;;;;;5066106;28;20040;-63
2022/11/23 05:44:22;;;;;;;8.07;1.25;;;10.30;99.90;;;;;;5057016;28;20036;-62
2022/11/23 05:46:47;;;;;;;6.90;1.02;;;10.30;99.90;;;;;;5057084;28;20105;-62
2022/11/23 05:49:13;;;;;;;4.20;0.85;;;10.40;99.90;;;;;;5058385;28;20118;-62
2022/11/23 05:51:39;;;;;;;12.00;0.93;;;10.40;99.90;;;;;;5049371;28;20116;-62
2022/11/23 05:54:05;;;;;;;6.18;1.42;;;10.40;99.90;;;;;;5059306;28;20043;-61
2022/11/23 05:56:31;;;;;;;5.43;0.75;;;10.40;99.90;;;;;;5056883;28;20024;-62
2022/11/23 05:58:57;;;;;;;7.57;0.75;;;10.40;99.90;;;;;;5058096;28;20502;-62
2022/11/23 06:01:22;;;;;;;5.35;0.55;;;10.40;99.90;;;;;;5058960;28;20048;-62
2022/11/23 06:03:51;;;;;;;8.65;1.33;;;10.50;99.90;;;;;;5047494;28;20507;-62
2022/11/23 06:06:17;;;;;;;9.82;1.00;;;10.50;99.90;;;;;;5054206;28;20032;-62
2022/11/23 06:08:42;;;;;;;10.85;1.70;;;10.60;99.90;;;;;;5058048;28;20108;-62
2022/11/23 06:11:08;;;;;;;5.38;0.82;;;10.50;99.90;;;;;;5058543;28;20139;-62
2022/11/23 06:13:34;;;;;;;3.50;0.98;;;10.60;99.90;;;;;;5052257;28;20495;-62
2022/11/23 06:16:00;;;;;;;7.38;1.48;;;10.60;99.90;;;;;;5050156;28;20072;-62
2022/11/23 06:18:26;;;;;;;8.50;1.20;;;10.50;99.90;;;;;;5052595;28;20029;-61
2022/11/23 06:20:52;;;;;;;4.25;0.65;;;10.50;99.90;;;;;;5041313;28;20124;-62
2022/11/23 06:23:18;;;;;;;5.78;0.88;;;10.50;99.90;;;;;;5058338;28;20128;-62
2022/11/23 06:25:43;;;;;;;6.40;1.17;;;10.50;99.90;;;;;;5057391;28;20438;-62
2022/11/23 06:28:09;;;;;;;6.85;0.65;;;10.40;99.90;;;;;;5048678;28;20025;-62
2022/11/23 06:30:35;;;;;;;11.25;2.15;;;10.40;99.90;;;;;;5045312;28;20095;-62
2022/11/23 06:33:04;;;;;;;11.82;1.15;;;10.30;99.90;;;;;;5054544;28;20082;-62
2022/11/23 06:35:30;;;;;;;5.63;1.08;;;10.40;99.90;;;;;;5035394;28;20116;-62
2022/11/23 06:37:56;;;;;;;5.00;1.65;;;10.40;99.90;;;;;;5048530;28;20029;-62
2022/11/23 06:40:22;;;;;;;5.57;0.90;;;10.50;99.90;;;;;;5055841;28;20083;-62
2022/11/23 06:42:48;;;;;;;16.63;1.95;;;10.50;99.90;;;;;;5048853;28;20029;-62
2022/11/23 06:45:14;;;;;;;6.80;1.35;;;10.60;99.90;;;;;;5057792;28;20029;-61
2022/11/23 06:47:39;;;;;;;6.25;0.82;;;10.60;99.90;;;;;;5048384;28;20017;-61
2022/11/23 06:50:06;;;;;;;4.55;0.52;;;10.50;99.90;;;;;;5055903;28;20035;-61
2022/11/23 06:52:32;;;;;;;6.15;1.67;;;10.50;99.90;;;;;;5053401;28;20083;-61
2022/11/23 06:54:58;;;;;;;7.85;1.33;;;10.40;99.90;;;;;;5052538;28;20041;-62
2022/11/23 06:57:23;;;;;;;9.07;1.25;;;10.40;99.90;;;;;;5044801;28;20090;-62
2022/11/23 06:59:49;;;;;;;5.97;1.23;;;10.40;99.90;;;;;;5045405;28;20522;-61
2022/11/23 07:02:15;;;;;;;3.67;1.80;;;10.40;99.90;;;;;;5046646;28;20491;-61
2022/11/23 07:04:41;;;;;;;11.38;1.35;;;10.30;99.90;;;;;;5045402;28;20031;-61
2022/11/23 07:07:07;;;;;;;8.25;0.90;;;10.30;99.90;;;;;;5050345;28;20029;-62
2022/11/23 07:09:33;;;;;;;7.50;0.77;;;10.30;99.90;;;;;;5058325;28;20025;-61
2022/11/23 07:11:59;;;;;;;9.48;1.48;;;10.40;99.90;;;;;;5051562;28;20022;-61
2022/11/23 07:14:25;;;;;;;11.32;2.72;;;10.40;99.90;;;;;;5041459;28;20613;-63
2022/11/23 07:16:51;;;;;;;11.90;1.65;;;10.40;99.90;;;;;;5051960;28;20127;-66
2022/11/23 07:19:16;;;;;;;11.95;1.42;;;10.40;99.90;;;;;;5055132;28;20131;-66
2022/11/23 07:21:43;;;;;;;11.25;1.75;;;10.40;99.90;;;;;;5055372;28;20067;-65
2022/11/23 07:24:09;;;;;;;8.55;1.98;;;10.40;99.90;;;;;;5051014;28;20037;-68
2022/11/23 07:26:35;;;;;;;5.63;1.25;;;10.30;99.90;;;;;;5055832;28;20021;-67
2022/11/23 07:29:01;;;;;;;12.40;1.63;;;10.30;99.90;;;;;;5045521;28;20033;-66
2022/11/23 07:31:26;;;;;;;6.07;1.30;;;10.20;99.90;;;;;;5044663;28;20025;-66
2022/11/23 07:33:52;;;;;;;12.43;1.60;;;10.20;99.90;;;;;;5047892;28;20028;-68
2022/11/23 07:36:18;;;;;;;10.57;1.55;;;10.20;99.90;;;;;;5051591;28;20025;-71
2022/11/23 07:38:44;;;;;;;6.35;1.70;;;10.20;99.90;;;;;;5054010;28;20023;-68
2022/11/23 07:41:09;;;;;;;11.60;1.60;;;10.20;99.90;;;;;;5052646;28;20388;-68
2022/11/23 07:43:35;;;;;;;10.75;2.63;;;10.20;99.90;;;;;;5055140;28;20386;-66
2022/11/23 07:46:01;;;;;;;12.05;2.03;;;10.20;99.90;;;;;;5053392;28;20116;-70
2022/11/23 07:48:27;;;;;;;12.15;1.55;;;10.20;99.90;;;;;;5051048;28;20108;-70
2022/11/23 07:50:54;;;;;;;6.75;1.50;;;10.20;99.90;;;;;;5046318;28;20025;-72
2022/11/23 07:53:20;;;;;;;12.57;2.05;;;10.20;99.90;;;;;;5056956;28;20037;-70
2022/11/23 07:55:46;;;;;;;14.35;1.80;;;10.20;99.90;;;;;;5053128;28;20081;-75
2022/11/23 07:58:12;;;;;;;6.63;1.85;;;10.20;99.90;;;;;;5041118;28;20112;-72
2022/11/23 08:00:38;;;;;;;13.25;1.52;;;10.20;99.90;;;;;;5059381;28;20487;-70
2022/11/23 08:03:04;;;;;;;12.23;1.58;;;10.20;99.90;;;;;;5043524;28;20025;-68
2022/11/23 08:05:34;;;;;;;9.48;2.13;;;10.30;99.90;;;;;;5056069;28;20074;-67
2022/11/23 08:08:02;;;;;;;11.52;1.70;;;10.30;99.90;;;;;;5050240;28;20383;-68
2022/11/23 08:10:29;;;;;;;16.67;2.83;;;10.30;99.90;;;;;;5047158;28;20020;-68
2022/11/23 08:12:59;;;;;;;7.63;1.83;;;10.40;99.90;;;;;;5053636;28;20037;-69
2022/11/23 08:15:29;;;;;;;14.88;1.73;;;10.40;99.90;;;;;;5052374;28;20036;-69
2022/11/23 08:18:04;;;;;;;9.73;1.40;;;10.40;99.90;;;;;;5056761;28;20052;-71
2022/11/23 08:20:30;;;;;;;11.80;2.33;;;10.40;99.90;;;;;;5052088;28;20032;-69
2022/11/23 08:22:56;;;;;;;9.60;2.20;;;10.50;99.90;;;;;;5058305;28;20145;-68
2022/11/23 08:25:24;;;;;;;12.38;2.17;;;10.50;99.90;;;;;;5051577;28;20051;-73
2022/11/23 08:28:01;;;;;;;13.65;2.75;;;10.50;99.90;;;;;;5057841;28;20032;-71
2022/11/23 08:30:28;;;;;;;14.80;1.98;;;10.60;99.90;;;;;;5054060;28;20028;-68
2022/11/23 08:32:54;;;;;;;7.20;1.95;;;10.60;99.90;;;;;;5044970;28;20476;-68
2022/11/23 08:35:20;;;;;;;17.45;2.28;;;10.70;99.90;;;;;;5048010;28;20025;-68
2022/11/23 08:37:46;;;;;;;12.10;2.60;;;10.80;99.90;;;;;;5053224;28;20511;-66
2022/11/23 08:40:13;;;;;;;12.27;1.38;;;10.70;99.90;;;;;;5050922;28;20449;-68
2022/11/23 08:42:39;;;;;;;11.52;2.10;;;10.80;99.90;;;;;;5058623;28;20124;-71
2022/11/23 08:45:05;;;;;;;11.95;1.27;;;10.80;99.90;;;;;;5057491;28;20389;-72
2022/11/23 08:47:32;;;;;;;15.88;2.15;;;10.90;99.90;;;;;;5037194;28;20022;-78
2022/11/23 08:49:58;;;;;;;10.05;1.60;;;10.90;99.90;;;;;;5037727;28;20399;-75
2022/11/23 08:52:24;;;;;;;9.70;1.63;;;10.90;99.90;;;;;;5042611;28;20481;-72
2022/11/23 08:54:50;;;;;;;12.23;2.67;;;10.90;99.90;;;;;;5046132;28;20208;-79
2022/11/23 08:57:16;;;;;;;9.98;1.48;;;10.90;99.90;;;;;;5049985;28;20518;-76
2022/11/23 08:59:42;;;;;;;11.88;1.65;;;10.90;99.90;;;;;;5042945;28;20028;-78
2022/11/23 09:02:13;;;;;;;9.93;2.90;;;10.90;99.90;;;;;;5037835;28;20017;-75
2022/11/23 09:04:40;;;;;;;16.05;1.67;;;11.00;99.90;;;;;;5051240;28;20083;-79
2022/11/23 09:07:06;;;;;;;13.63;1.25;;;11.00;99.90;;;;;;5050599;28;20512;-74
2022/11/23 09:09:32;;;;;;;10.25;4.10;;;11.00;99.90;;;;;;5050147;28;20455;-80
2022/11/23 09:11:58;;;;;;;9.05;2.65;;;11.00;99.90;;;;;;5050557;28;20033;-70
2022/11/23 09:14:26;;;;;;;81.78;37.42;;;11.00;99.90;;;;;;5046162;28;20100;-67
2022/11/23 09:16:52;;;;;;;5.65;1.50;;;11.00;99.90;;;;;;5045924;28;20053;-66
2022/11/23 09:19:18;;;;;;;7.03;1.58;;;10.90;99.90;;;;;;5046100;28;20018;-66
2022/11/23 09:21:44;;;;;;;12.75;2.50;;;10.80;99.90;;;;;;5033833;28;20040;-64
2022/11/23 09:24:11;;;;;;;36.22;12.25;;;10.80;99.90;;;;;;5036496;28;20045;-65
2022/11/23 09:26:37;;;;;;;9.75;2.17;;;10.90;99.90;;;;;;5038785;28;20025;-65
2022/11/23 09:29:07;;;;;;;15.25;3.15;;;10.90;99.90;;;;;;5043713;28;20033;-64
2022/11/23 09:31:33;;;;;;;15.95;1.67;;;10.90;99.90;;;;;;5048021;28;20032;-65
2022/11/23 09:33:59;;;;;;;39.33;9.30;;;11.00;99.90;;;;;;5041219;28;20675;-65
2022/11/23 09:36:25;;;;;;;16.13;2.38;;;11.00;99.90;;;;;;5048999;28;20112;-65
2022/11/23 09:38:51;;;;;;;18.77;2.00;;;11.00;99.90;;;;;;5041585;28;20039;-65
2022/11/23 09:41:37;;;;;;;8.85;1.67;;;10.90;99.90;;;;;;5047929;28;20507;-65
2022/11/23 09:44:20;;;;;;;11.27;1.63;;;10.70;99.90;;;;;;5041949;28;20036;-65
2022/11/23 09:47:16;;;;;;;7.70;1.27;;;10.60;99.90;;;;;;5044354;28;20026;-66
2022/11/23 09:50:02;;;;;;;11.60;1.65;;;10.60;99.90;;;;;;5004589;28;20401;-65
2022/11/23 09:52:29;;;;;;;8.82;1.38;;;10.60;99.90;;;;;;5011220;28;20030;-66
2022/11/23 09:55:00;;;;;;;11.82;1.63;;;10.60;99.90;;;;;;5001938;28;20049;-66
2022/11/23 09:57:30;;;;;;;12.30;1.95;;;10.60;99.90;;;;;;5009655;28;20058;-66
2022/11/23 10:00:04;;;;;;;6.25;0.75;;;10.60;99.90;;;;;;5008674;28;20477;-66
2022/11/23 10:02:35;;;;;;;6.65;1.05;;;10.60;99.90;;;;;;5008879;28;20037;-66
2022/11/23 10:05:03;;;;;;;5.93;0.63;;;10.60;99.90;;;;;;5011370;28;20064;-66
2022/11/23 10:08:02;;;;;;;8.35;0.90;;;10.60;99.90;;;;;;5006250;28;20054;-65
2022/11/23 10:10:49;;;;;;;7.30;0.90;;;10.60;99.90;;;;;;5016126;28;20021;-64
2022/11/23 10:13:24;;;;;;;6.45;1.10;;;10.50;99.90;;;;;;5008611;28;20033;-64
2022/11/23 10:16:09;;;;;;;3.83;0.70;;;10.40;99.90;;;;;;5019321;28;20029;-64
2022/11/23 10:18:44;;;;;;;7.45;0.98;;;10.40;99.90;;;;;;5005652;28;20061;-65
2022/11/23 10:21:16;;;;;;;7.47;1.45;;;10.30;99.90;;;;;;5014147;28;20116;-64
2022/11/23 10:24:01;;;;;;;6.45;0.75;;;10.20;99.90;;;;;;5003658;28;20398;-65
2022/11/23 10:26:41;;;;;;;2.22;1.05;;;10.30;99.90;;;;;;5028230;28;20055;-65
2022/11/23 10:29:30;;;;;;;6.40;1.10;;;10.40;99.90;;;;;;5044450;28;21188;-65
2022/11/23 10:31:58;;;;;;;3.80;0.50;;;10.50;99.90;;;;;;5046496;28;20060;-65
2022/11/23 10:35:02;;;;;;;8.65;1.20;;;10.50;99.90;;;;;;5049787;28;20511;-67
2022/11/23 10:37:28;;;;;;;17.67;2.88;;;10.50;99.90;;;;;;5031459;28;20033;-66
2022/11/23 10:40:09;;;;;;;8.80;0.65;;;10.40;99.90;;;;;;5045258;28;20025;-66
2022/11/23 10:43:06;;;;;;;9.15;1.08;;;10.50;99.90;;;;;;5046583;28;20456;-66
2022/11/23 10:45:33;;;;;;;6.07;0.77;;;10.60;99.90;;;;;;5045207;28;20052;-65
2022/11/23 10:47:59;;;;;;;9.43;2.08;;;10.60;99.90;;;;;;5045748;28;20499;-68
2022/11/23 10:50:49;;;;;;;;;;;;;;;;;;;;;
2022/11/23 10:53:45;;;;;;;3.63;0.60;;;10.70;99.90;;;;;;5040201;28;20232;-66
2022/11/23 10:59:03;;;;;;;7.60;1.70;;;10.90;99.90;;;;;;5038768;28;20099;-66
2022/11/23 11:01:29;;;;;;;2.65;0.70;;;10.90;99.90;;;;;;5043449;28;20033;-65
2022/11/23 11:04:02;;;;;;;6.68;1.38;;;11.00;99.90;;;;;;5041231;28;20425;-68
2022/11/23 11:06:31;;;;;;;6.15;0.57;;;11.10;99.90;;;;;;5049011;28;20025;-65
2022/11/23 11:09:02;;;;;;;7.35;0.77;;;11.30;99.90;;;;;;5045519;28;20083;-65
2022/11/23 11:11:37;;;;;;;2.80;0.70;;;11.90;99.90;;;;;;5046130;28;20485;-66
2022/11/23 11:14:18;;;;;;;4.95;0.95;;;12.30;99.90;;;;;;5040079;28;20127;-66
2022/11/23 11:16:52;;;;;;;7.00;1.10;;;12.50;99.90;;;;;;5048760;28;20128;-66
2022/11/23 11:19:30;;;;;;;10.38;0.90;;;12.70;99.90;;;;;;5045814;28;20021;-67
2022/11/23 11:22:02;;;;;;;7.28;0.80;;;12.70;99.90;;;;;;5047253;28;20119;-68
2022/11/23 11:24:45;;;;;;;5.78;0.88;;;13.10;99.90;;;;;;5045871;28;20075;-65
2022/11/23 11:27:19;;;;;;;5.30;1.05;;;13.20;99.90;;;;;;5039140;28;20075;-65
2022/11/23 11:29:44;;;;;;;9.32;1.63;;;13.20;99.90;;;;;;5047645;28;20491;-65
2022/11/23 11:32:18;;;;;;;7.18;1.55;;;13.30;99.90;;;;;;5045284;28;20029;-66
2022/11/23 11:35:03;;;;;;;6.78;1.42;;;13.50;99.90;;;;;;5045700;28;20025;-66
2022/11/23 11:37:45;;;;;;;7.72;1.88;;;13.70;99.90;;;;;;5045057;28;20036;-67
2022/11/23 11:40:31;;;;;;;9.57;1.50;;;13.90;99.90;;;;;;5046809;28;20124;-66
2022/11/23 11:43:04;;;;;;;4.63;1.05;;;13.70;99.90;;;;;;5041053;28;20096;-67
2022/11/23 11:45:48;;;;;;;12.55;1.42;;;13.50;99.90;;;;;;5045659;28;20029;-66
2022/11/23 11:48:38;;;;;;;5.28;1.63;;;13.70;99.90;;;;;;5046684;28;20033;-67
2022/11/23 11:51:45;;;;;;;9.65;1.40;;;14.00;99.90;;;;;;5044365;28;20438;-66
2022/11/23 11:54:19;;;;;;;9.35;1.35;;;13.90;99.90;;;;;;4998745;28;20034;-66
2022/11/23 11:56:52;;;;;;;9.57;1.73;;;13.80;99.90;;;;;;5003046;28;20026;-66
2022/11/23 11:59:42;;;;;;;7.07;1.40;;;13.90;99.90;;;;;;5001790;28;20370;-66
2022/11/23 12:02:19;;;;;;;6.93;1.10;;;14.10;99.90;;;;;;5002107;28;20990;-66
2022/11/23 12:04:57;;;;;;;7.40;1.48;;;14.30;99.90;;;;;;5007675;28;20073;-65
2022/11/23 12:07:31;;;;;;;8.48;1.40;;;14.30;99.90;;;;;;5004398;28;20033;-65
2022/11/23 12:10:09;;;;;;;6.90;1.23;;;14.40;99.90;;;;;;5001282;28;20528;-64
2022/11/23 12:12:36;;;;;;;11.70;1.63;;;14.30;99.90;;;;;;5003344;28;20027;-64
2022/11/23 12:15:04;;;;;;;7.97;1.50;;;14.30;99.90;;;;;;5001030;28;20029;-66
2022/11/23 12:17:50;;;;;;;8.23;1.48;;;14.10;99.90;;;;;;5004166;28;20065;-64
2022/11/23 12:20:25;;;;;;;12.95;1.75;;;14.40;99.90;;;;;;5000426;28;20057;-63
2022/11/23 12:23:12;;;;;;;8.57;1.58;;;14.60;99.90;;;;;;5002888;28;20080;-64
2022/11/23 12:25:46;;;;;;;9.60;1.60;;;15.00;99.90;;;;;;5034296;28;20041;-65
2022/11/23 12:28:36;;;;;;;7.60;1.48;;;14.90;99.90;;;;;;5042438;28;20057;-63
2022/11/23 12:31:54;;;;;;;7.97;1.48;;;15.30;99.90;;;;;;5041068;28;20035;-65
2022/11/23 12:34:40;;;;;;;11.20;1.67;;;15.10;99.90;;;;;;5035701;28;20037;-63
2022/11/23 12:37:11;;;;;;;9.50;2.00;;;15.20;99.90;;;;;;5037664;28;20064;-63
2022/11/23 12:39:58;;;;;;;8.75;1.50;;;15.20;99.90;;;;;;5040868;28;20036;-65
2022/11/23 12:42:32;;;;;;;12.45;2.88;;;15.20;99.90;;;;;;5040268;28;20025;-65
2022/11/23 12:45:08;;;;;;;11.23;2.30;;;15.40;99.90;;;;;;5045133;28;20794;-64
2022/11/23 12:47:56;;;;;;;9.13;1.40;;;15.40;99.90;;;;;;5048426;28;20018;-65
2022/11/23 12:50:44;;;;;;;9.75;2.50;;;15.80;99.90;;;;;;5046105;28;20540;-64
2022/11/23 12:53:28;;;;;;;10.93;2.30;;;15.90;99.90;;;;;;5044600;28;20358;-65
2022/11/23 12:56:27;;;;;;;13.35;2.65;;;15.70;99.90;;;;;;5044731;28;20056;-67
2022/11/23 12:58:55;;;;;;;16.17;3.13;;;15.60;99.90;;;;;;5045967;28;20438;-69
2022/11/23 13:01:33;;;;;;;12.95;2.47;;;15.60;99.90;;;;;;5045212;28;20116;-64
2022/11/23 13:04:24;;;;;;;13.23;2.63;;;15.50;99.90;;;;;;5041269;28;20045;-65
2022/11/23 13:07:08;;;;;;;9.73;1.85;;;15.60;99.90;;;;;;5045300;28;20025;-65